Time;durP1;ratioP1;P1;durP2;ratioP2;P2;SDS_P1;SDS_P2;PMS_P1;PMS_P2;Temp;Humidity;BMP_temperature;BMP_pressure;BME280_temperature;BME280_humidity;BME280_pressure;Samples;Min_cycle;Max_cycle;Signal;HPM_P1;HPM_P2
2020/12/19 00:01:34;;;;;;;11.45;6.47;;;4.80;99.90;;;;;;5007551;28;20163;-77
2020/12/19 00:04:00;;;;;;;14.77;7.20;;;4.80;99.90;;;;;;5006174;28;20041;-77
2020/12/19 00:06:26;;;;;;;17.92;10.00;;;4.80;99.90;;;;;;5006189;28;20030;-77
2020/12/19 00:08:52;;;;;;;11.68;6.53;;;4.80;99.90;;;;;;5006125;28;20025;-77
2020/12/19 00:11:17;;;;;;;33.47;19.60;;;5.00;99.90;;;;;;5006477;28;20030;-77
2020/12/19 00:13:43;;;;;;;18.33;11.23;;;4.70;99.90;;;;;;5006291;28;20350;-76
2020/12/19 00:16:16;;;;;;;17.35;10.45;;;4.70;99.90;;;;;;5007381;28;20084;-77
2020/12/19 00:18:45;;;;;;;13.52;8.65;;;4.60;99.90;;;;;;5011525;28;20109;-77
2020/12/19 00:21:11;;;;;;;11.55;7.95;;;4.40;99.90;;;;;;5010209;28;20120;-76
2020/12/19 00:23:37;;;;;;;13.18;8.18;;;4.40;99.90;;;;;;5009420;28;20049;-77
2020/12/19 00:26:03;;;;;;;11.57;7.10;;;4.70;99.90;;;;;;5008714;28;20030;-77
2020/12/19 00:28:29;;;;;;;13.45;7.85;;;4.60;99.90;;;;;;5011279;28;20083;-76
2020/12/19 00:30:55;;;;;;;12.73;8.05;;;4.50;99.90;;;;;;5011067;28;20038;-76
2020/12/19 00:33:21;;;;;;;11.43;7.38;;;4.50;99.90;;;;;;5009416;28;20132;-76
2020/12/19 00:35:47;;;;;;;10.50;6.82;;;4.40;99.90;;;;;;5010278;28;20492;-77
2020/12/19 00:38:12;;;;;;;10.00;6.93;;;4.40;99.90;;;;;;5008715;28;20044;-77
2020/12/19 00:40:38;;;;;;;11.10;6.85;;;4.40;99.90;;;;;;5009725;28;20037;-77
2020/12/19 00:43:04;;;;;;;9.32;6.03;;;4.40;99.90;;;;;;5010309;28;20033;-76
2020/12/19 00:45:29;;;;;;;10.77;6.82;;;4.70;99.90;;;;;;5008895;28;20104;-76
2020/12/19 00:47:55;;;;;;;10.60;7.45;;;4.80;99.90;;;;;;5009407;28;20516;-77
2020/12/19 00:50:21;;;;;;;12.43;8.48;;;4.80;99.90;;;;;;5008977;28;20040;-77
2020/12/19 00:52:46;;;;;;;9.88;6.57;;;4.70;99.90;;;;;;5010391;28;20057;-77
2020/12/19 00:55:12;;;;;;;9.13;6.57;;;4.60;99.90;;;;;;5008733;28;20034;-75
2020/12/19 00:57:38;;;;;;;11.77;6.82;;;4.60;99.90;;;;;;5010540;28;20488;-77
2020/12/19 01:00:07;;;;;;;13.25;8.38;;;4.70;99.90;;;;;;5010234;28;20029;-77
2020/12/19 01:02:35;;;;;;;10.60;7.70;;;4.50;99.90;;;;;;5009084;28;20061;-77
2020/12/19 01:05:02;;;;;;;11.27;7.05;;;4.30;99.90;;;;;;5010189;28;20531;-77
2020/12/19 01:07:29;;;;;;;12.43;7.33;;;4.30;99.90;;;;;;5008973;28;20755;-76
2020/12/19 01:09:54;;;;;;;12.00;8.20;;;4.50;99.90;;;;;;5008983;28;20088;-76
2020/12/19 01:12:20;;;;;;;10.50;6.93;;;4.80;99.90;;;;;;5010516;28;20518;-76
2020/12/19 01:14:46;;;;;;;11.60;8.25;;;4.90;99.90;;;;;;5009574;28;20034;-77
2020/12/19 01:17:11;;;;;;;12.95;7.95;;;4.80;99.90;;;;;;5009982;28;20049;-76
2020/12/19 01:19:37;;;;;;;10.98;7.60;;;4.70;99.90;;;;;;5008719;28;20025;-77
2020/12/19 01:22:02;;;;;;;10.07;7.15;;;4.40;99.90;;;;;;5010036;28;20022;-77
2020/12/19 01:24:28;;;;;;;10.25;7.28;;;4.50;99.90;;;;;;5008176;28;20030;-77
2020/12/19 01:26:54;;;;;;;12.10;6.90;;;4.40;99.90;;;;;;5010027;28;20442;-76
2020/12/19 01:29:21;;;;;;;9.50;6.00;;;4.40;99.90;;;;;;5007913;28;20027;-76
2020/12/19 01:31:46;;;;;;;11.02;6.30;;;4.50;99.90;;;;;;5009756;28;20382;-76
2020/12/19 01:34:12;;;;;;;8.90;6.07;;;4.40;99.90;;;;;;5007879;28;20030;-76
2020/12/19 01:36:38;;;;;;;10.27;6.78;;;4.60;99.90;;;;;;5009702;28;20507;-76
2020/12/19 01:39:03;;;;;;;9.80;6.70;;;4.60;99.90;;;;;;5009473;28;20026;-76
2020/12/19 01:41:29;;;;;;;9.15;6.35;;;4.40;99.90;;;;;;5009722;28;20397;-77
2020/12/19 01:43:56;;;;;;;10.98;6.70;;;4.40;99.90;;;;;;5009974;28;20057;-76
2020/12/19 01:46:28;;;;;;;7.35;5.50;;;4.60;99.90;;;;;;5009205;28;20100;-76
2020/12/19 01:48:56;;;;;;;9.43;5.85;;;4.70;99.90;;;;;;5008581;28;20022;-77
2020/12/19 01:51:23;;;;;;;14.18;9.48;;;4.70;99.90;;;;;;5008202;28;20029;-77
2020/12/19 01:53:50;;;;;;;12.93;8.07;;;4.80;99.90;;;;;;5009605;28;20026;-77
2020/12/19 01:56:23;;;;;;;9.85;6.43;;;4.80;99.90;;;;;;5008026;28;20087;-77
2020/12/19 01:58:49;;;;;;;10.65;6.60;;;4.90;99.90;;;;;;5009759;28;20083;-77
2020/12/19 02:01:16;;;;;;;13.13;9.57;;;4.80;99.90;;;;;;5009096;28;20042;-77
2020/12/19 02:03:42;;;;;;;11.85;7.80;;;4.50;99.90;;;;;;5009119;28;20025;-76
2020/12/19 02:06:08;;;;;;;11.88;8.80;;;4.40;99.90;;;;;;5007873;28;20485;-76
2020/12/19 02:08:34;;;;;;;11.23;7.75;;;4.00;99.90;;;;;;5007665;28;20065;-77
2020/12/19 02:11:00;;;;;;;14.10;8.38;;;4.10;99.90;;;;;;5009473;28;20103;-77
2020/12/19 02:13:25;;;;;;;12.65;7.68;;;3.80;99.90;;;;;;5009550;28;20021;-76
2020/12/19 02:15:51;;;;;;;14.25;9.82;;;3.80;99.90;;;;;;5008441;28;20079;-76
2020/12/19 02:18:16;;;;;;;15.63;10.90;;;3.60;99.90;;;;;;5009599;28;20045;-77
2020/12/19 02:20:42;;;;;;;12.65;9.05;;;3.60;99.90;;;;;;5009257;28;20026;-76
2020/12/19 02:23:08;;;;;;;16.80;11.52;;;3.40;99.90;;;;;;5008348;28;20022;-76
2020/12/19 02:25:36;;;;;;;16.15;10.23;;;3.40;99.90;;;;;;5007070;28;20500;-76
2020/12/19 02:28:04;;;;;;;16.50;10.93;;;3.10;99.90;;;;;;5007422;28;20022;-76
2020/12/19 02:30:29;;;;;;;;;;;3.30;99.90;;;;;;5009386;28;20179;-76
2020/12/19 02:32:56;;;;;;;13.82;9.60;;;3.50;99.90;;;;;;5007518;28;19936;-75
2020/12/19 02:35:22;;;;;;;13.00;8.70;;;3.70;99.90;;;;;;5007373;28;20385;-77
2020/12/19 02:37:48;;;;;;;16.52;9.43;;;3.80;99.90;;;;;;5008948;28;20101;-77
2020/12/19 02:40:13;;;;;;;14.18;9.15;;;3.90;99.90;;;;;;5001251;28;20108;-76
2020/12/19 02:42:40;;;;;;;13.20;8.32;;;3.90;99.90;;;;;;5006878;28;20054;-76
2020/12/19 02:45:06;;;;;;;20.02;10.75;;;3.90;99.90;;;;;;5008411;28;20474;-77
2020/12/19 02:47:31;;;;;;;16.75;11.63;;;4.00;99.90;;;;;;5008889;28;20100;-76
2020/12/19 02:49:57;;;;;;;14.27;9.55;;;4.00;99.90;;;;;;5007913;28;20049;-75
2020/12/19 02:52:22;;;;;;;18.60;11.18;;;3.80;99.90;;;;;;5008651;28;20026;-77
2020/12/19 02:54:48;;;;;;;13.82;9.93;;;3.80;99.90;;;;;;5007063;28;20025;-76
2020/12/19 02:57:13;;;;;;;12.00;8.63;;;3.90;99.90;;;;;;5008852;28;20037;-77
2020/12/19 02:59:39;;;;;;;12.75;8.93;;;3.80;99.90;;;;;;5007003;28;20033;-77
2020/12/19 03:02:05;;;;;;;16.23;9.60;;;3.50;99.90;;;;;;5009349;28;20040;-77
2020/12/19 03:04:30;;;;;;;12.05;8.63;;;3.70;99.90;;;;;;5011812;28;20045;-77
2020/12/19 03:06:56;;;;;;;14.85;9.20;;;3.70;99.90;;;;;;5010977;28;20091;-76
2020/12/19 03:09:22;;;;;;;11.65;8.20;;;3.90;99.90;;;;;;5013164;28;20030;-75
2020/12/19 03:11:47;;;;;;;14.20;8.80;;;3.80;99.90;;;;;;5012833;28;20095;-76
2020/12/19 03:14:13;;;;;;;12.85;7.82;;;3.90;99.90;;;;;;5011973;28;20600;-75
2020/12/19 03:16:38;;;;;;;11.77;7.97;;;3.20;99.90;;;;;;5012014;28;20500;-75
2020/12/19 03:19:04;;;;;;;12.65;7.95;;;3.50;99.90;;;;;;5012022;28;20133;-76
2020/12/19 03:21:30;;;;;;;16.73;8.07;;;3.50;99.90;;;;;;5009476;28;20058;-75
2020/12/19 03:23:55;;;;;;;13.07;7.97;;;3.60;99.90;;;;;;5009692;28;20120;-76
2020/12/19 03:26:21;;;;;;;12.45;7.80;;;3.30;99.90;;;;;;5008909;28;20025;-76
2020/12/19 03:28:47;;;;;;;12.15;7.72;;;3.60;99.90;;;;;;5009605;28;20022;-76
2020/12/19 03:31:12;;;;;;;12.68;8.18;;;3.70;99.90;;;;;;5009533;28;20124;-76
2020/12/19 03:33:38;;;;;;;10.98;7.28;;;3.70;99.90;;;;;;5010690;28;20029;-77
2020/12/19 03:36:04;;;;;;;13.45;7.47;;;3.70;99.90;;;;;;5009952;28;20049;-76
2020/12/19 03:38:30;;;;;;;11.23;7.47;;;3.90;99.90;;;;;;5009582;28;20076;-75
2020/12/19 03:40:55;;;;;;;10.18;7.03;;;4.10;99.90;;;;;;5009670;28;20034;-76
2020/12/19 03:43:21;;;;;;;11.52;7.47;;;4.00;99.90;;;;;;5011041;28;20033;-77
2020/12/19 03:45:47;;;;;;;13.10;7.60;;;4.10;99.90;;;;;;5009060;28;20028;-76
2020/12/19 03:48:12;;;;;;;12.00;7.40;;;3.90;99.90;;;;;;5010864;28;20112;-75
2020/12/19 03:50:38;;;;;;;12.80;7.53;;;3.90;99.90;;;;;;5009335;28;20152;-77
2020/12/19 03:53:03;;;;;;;13.05;8.27;;;3.60;99.90;;;;;;5014333;28;20022;-75
2020/12/19 03:55:29;;;;;;;13.40;7.30;;;3.40;99.90;;;;;;5012759;28;20738;-76
2020/12/19 03:57:55;;;;;;;12.05;7.75;;;3.70;99.90;;;;;;5014554;28;20034;-75
2020/12/19 04:00:20;;;;;;;14.00;8.18;;;3.70;99.90;;;;;;5014409;28;20026;-77
2020/12/19 04:02:46;;;;;;;12.48;8.00;;;3.70;99.90;;;;;;5011748;28;20602;-75
2020/12/19 04:05:12;;;;;;;11.02;7.82;;;3.80;99.90;;;;;;4998768;28;20030;-76
2020/12/19 04:07:38;;;;;;;12.23;7.72;;;4.00;99.90;;;;;;4992233;28;20018;-76
2020/12/19 04:10:05;;;;;;;14.35;7.93;;;3.90;99.90;;;;;;4991168;28;20037;-76
2020/12/19 04:12:31;;;;;;;11.32;7.10;;;4.00;99.90;;;;;;4991318;28;20030;-76
2020/12/19 04:14:57;;;;;;;11.40;7.32;;;4.00;99.90;;;;;;4990237;28;20401;-76
2020/12/19 04:17:23;;;;;;;11.48;7.03;;;4.00;99.90;;;;;;4991737;28;20026;-75
2020/12/19 04:19:48;;;;;;;13.82;8.60;;;3.70;99.90;;;;;;4991760;28;20023;-76
2020/12/19 04:22:15;;;;;;;12.65;7.20;;;3.50;99.90;;;;;;4990374;28;20394;-76
2020/12/19 04:24:41;;;;;;;11.77;7.05;;;3.70;99.90;;;;;;4989550;28;20409;-77
2020/12/19 04:27:06;;;;;;;12.85;8.27;;;3.70;99.90;;;;;;4990882;28;20030;-76
2020/12/19 04:29:32;;;;;;;11.38;8.10;;;3.70;99.90;;;;;;4991324;28;20096;-75
2020/12/19 04:31:58;;;;;;;14.30;7.93;;;3.60;99.90;;;;;;4990162;28;20026;-76
2020/12/19 04:34:24;;;;;;;16.67;7.28;;;3.50;99.90;;;;;;4990894;28;20464;-76
2020/12/19 04:36:51;;;;;;;11.80;7.20;;;3.60;99.90;;;;;;4989309;28;20051;-76
2020/12/19 04:39:17;;;;;;;13.57;7.68;;;3.60;99.90;;;;;;4991266;28;20415;-76
2020/12/19 04:41:42;;;;;;;12.20;7.75;;;3.50;99.90;;;;;;4989970;28;20037;-76
2020/12/19 04:44:08;;;;;;;12.65;8.20;;;3.10;99.90;;;;;;4990338;28;20037;-76
2020/12/19 04:46:39;;;;;;;10.93;6.68;;;3.10;99.90;;;;;;4989294;28;20029;-76
2020/12/19 04:49:05;;;;;;;11.70;7.65;;;3.30;99.90;;;;;;4991096;28;20054;-76
2020/12/19 04:51:32;;;;;;;11.77;6.85;;;3.10;99.90;;;;;;4990882;28;20026;-75
2020/12/19 04:53:57;;;;;;;9.73;6.70;;;3.10;99.90;;;;;;4989265;28;20457;-76
2020/12/19 04:56:24;;;;;;;10.55;6.93;;;3.30;99.90;;;;;;4990429;28;20269;-76
2020/12/19 04:59:01;;;;;;;11.95;7.70;;;3.30;99.90;;;;;;4989563;28;20031;-75
2020/12/19 05:01:27;;;;;;;11.55;7.55;;;3.00;99.90;;;;;;4990946;28;20499;-76
2020/12/19 05:03:53;;;;;;;10.85;7.75;;;2.70;99.90;;;;;;4989989;28;20072;-76
2020/12/19 05:06:27;;;;;;;12.43;7.53;;;2.80;99.90;;;;;;4990166;28;20057;-76
2020/12/19 05:08:54;;;;;;;12.75;8.52;;;2.90;99.90;;;;;;4989264;28;20029;-75
2020/12/19 05:11:20;;;;;;;113.32;58.05;;;2.80;99.90;;;;;;4990472;28;20030;-75
2020/12/19 05:13:46;;;;;;;83.00;42.75;;;2.80;99.90;;;;;;4990935;28;20081;-76
2020/12/19 05:16:15;;;;;;;75.45;39.50;;;2.70;99.90;;;;;;4988779;28;20176;-76
2020/12/19 05:18:41;;;;;;;27.08;15.90;;;2.80;99.90;;;;;;4989497;28;20103;-75
2020/12/19 05:21:08;;;;;;;27.00;14.73;;;3.00;99.90;;;;;;4988911;28;20398;-75
2020/12/19 05:23:40;;;;;;;18.50;11.63;;;3.10;99.90;;;;;;4990460;28;20485;-76
2020/12/19 05:26:07;;;;;;;16.65;11.02;;;3.30;99.90;;;;;;4988334;28;20023;-76
2020/12/19 05:28:35;;;;;;;15.05;9.77;;;3.10;99.90;;;;;;4989927;28;20124;-76
2020/12/19 05:31:01;;;;;;;14.50;9.90;;;2.60;99.90;;;;;;4988856;28;20074;-75
2020/12/19 05:33:42;;;;;;;16.58;10.00;;;2.70;99.90;;;;;;4988734;28;20693;-76
2020/12/19 05:36:21;;;;;;;14.75;9.07;;;2.70;99.90;;;;;;4988225;28;20501;-75
2020/12/19 05:38:47;;;;;;;15.95;9.43;;;2.60;99.90;;;;;;4988621;28;20147;-76
2020/12/19 05:41:13;;;;;;;13.98;9.27;;;2.60;99.90;;;;;;4989623;28;20107;-75
2020/12/19 05:43:49;;;;;;;10.68;7.68;;;2.80;99.90;;;;;;4988939;28;20022;-76
2020/12/19 05:46:32;;;;;;;13.55;7.78;;;2.90;99.90;;;;;;4989194;28;20342;-76
2020/12/19 05:49:00;;;;;;;15.55;8.90;;;3.00;99.90;;;;;;4988388;28;20061;-75
2020/12/19 05:51:30;;;;;;;14.60;9.43;;;2.80;99.90;;;;;;4990065;28;20041;-75
2020/12/19 05:54:11;;;;;;;18.23;10.00;;;2.80;99.90;;;;;;4988301;28;20027;-75
2020/12/19 05:56:41;;;;;;;11.55;8.23;;;2.60;99.90;;;;;;4970109;28;20027;-75
2020/12/19 05:59:11;;;;;;;14.63;9.10;;;2.60;99.90;;;;;;4968674;28;20074;-75
2020/12/19 06:01:42;;;;;;;13.80;8.50;;;2.60;99.90;;;;;;4970444;28;20061;-76
2020/12/19 06:04:09;;;;;;;17.80;10.48;;;2.70;99.90;;;;;;4968507;28;20041;-76
2020/12/19 06:06:40;;;;;;;24.67;16.15;;;2.60;99.90;;;;;;4971217;28;20045;-76
2020/12/19 06:09:10;;;;;;;23.63;14.98;;;2.50;99.90;;;;;;4971216;28;20046;-76
2020/12/19 06:11:45;;;;;;;29.20;18.00;;;2.50;99.90;;;;;;4969551;28;20030;-76
2020/12/19 06:14:21;;;;;;;35.35;21.20;;;2.40;99.90;;;;;;4968535;28;20494;-76
2020/12/19 06:16:50;;;;;;;23.73;15.48;;;2.40;99.90;;;;;;4969512;28;20030;-75
2020/12/19 06:19:23;;;;;;;26.25;16.85;;;2.40;99.90;;;;;;4968772;28;20107;-76
2020/12/19 06:21:52;;;;;;;23.92;15.38;;;2.60;99.90;;;;;;4970124;28;20153;-75
2020/12/19 06:24:46;;;;;;;28.50;16.88;;;2.60;99.90;;;;;;4969365;28;20027;-76
2020/12/19 06:27:17;;;;;;;28.67;17.75;;;2.60;99.90;;;;;;4969668;28;20085;-75
2020/12/19 06:29:43;;;;;;;28.75;19.38;;;2.60;99.90;;;;;;4968141;28;20030;-74
2020/12/19 06:32:18;;;;;;;35.17;21.02;;;2.70;99.90;;;;;;4968679;28;20030;-75
2020/12/19 06:34:56;;;;;;;31.95;20.98;;;2.60;99.90;;;;;;4968932;28;20256;-76
2020/12/19 06:37:25;;;;;;;27.33;17.83;;;2.60;99.90;;;;;;4969548;28;20030;-77
2020/12/19 06:40:07;;;;;;;15.50;9.93;;;2.70;99.90;;;;;;4969415;28;20038;-77
2020/12/19 06:42:33;;;;;;;15.88;10.85;;;2.80;99.90;;;;;;4967811;28;20579;-77
2020/12/19 06:45:27;;;;;;;18.75;12.90;;;2.70;99.90;;;;;;4968549;28;20027;-77
2020/12/19 06:47:53;;;;;;;26.30;15.45;;;2.50;99.90;;;;;;4969568;28;20015;-76
2020/12/19 06:50:20;;;;;;;23.40;16.05;;;2.40;99.90;;;;;;4968551;28;20034;-78
2020/12/19 06:52:56;;;;;;;30.13;21.25;;;2.40;99.90;;;;;;4969391;28;20501;-78
2020/12/19 06:55:24;;;;;;;22.60;15.20;;;2.40;99.90;;;;;;4967304;28;20043;-75
2020/12/19 06:57:53;;;;;;;29.38;20.17;;;2.50;99.90;;;;;;4968041;28;20355;-75
2020/12/19 07:00:29;;;;;;;27.23;18.73;;;2.50;99.90;;;;;;4969301;28;20493;-75
2020/12/19 07:03:00;;;;;;;23.98;16.42;;;2.50;99.90;;;;;;4969031;28;20035;-76
2020/12/19 07:05:30;;;;;;;16.95;11.05;;;2.60;99.90;;;;;;4968063;28;20613;-76
2020/12/19 07:08:19;;;;;;;15.93;10.82;;;2.80;99.90;;;;;;4966743;28;20113;-76
2020/12/19 07:10:45;;;;;;;15.43;8.95;;;2.80;99.90;;;;;;4966440;28;20027;-75
2020/12/19 07:13:11;;;;;;;13.18;8.10;;;2.80;99.90;;;;;;4968058;28;20109;-75
2020/12/19 07:15:41;;;;;;;12.02;8.23;;;2.80;99.90;;;;;;4965614;28;20061;-75
2020/12/19 07:18:29;;;;;;;14.02;8.77;;;2.70;99.90;;;;;;4967682;28;20418;-74
2020/12/19 07:21:07;;;;;;;14.73;9.40;;;2.40;99.90;;;;;;4968065;28;20035;-76
2020/12/19 07:23:36;;;;;;;15.75;9.65;;;2.30;99.90;;;;;;4968044;28;20054;-75
2020/12/19 07:26:03;;;;;;;16.83;10.20;;;2.20;99.90;;;;;;4968156;28;20058;-75
2020/12/19 07:28:29;;;;;;;16.15;10.40;;;2.20;99.90;;;;;;4975558;28;20026;-75
2020/12/19 07:30:56;;;;;;;15.95;11.15;;;2.20;99.90;;;;;;4975331;28;20031;-76
2020/12/19 07:33:21;;;;;;;19.80;13.63;;;2.10;99.90;;;;;;4974319;28;20049;-74
2020/12/19 07:35:48;;;;;;;21.98;14.50;;;2.00;99.90;;;;;;4973453;28;20089;-75
2020/12/19 07:38:13;;;;;;;22.88;15.50;;;2.00;99.90;;;;;;4974346;28;20058;-76
2020/12/19 07:40:39;;;;;;;23.27;16.38;;;2.00;99.90;;;;;;4975158;28;20034;-75
2020/12/19 07:43:08;;;;;;;25.80;16.08;;;2.10;99.90;;;;;;4975286;28;20474;-76
2020/12/19 07:45:35;;;;;;;25.77;15.02;;;2.20;99.90;;;;;;4973375;28;20023;-75
2020/12/19 07:48:00;;;;;;;23.77;14.97;;;2.30;99.90;;;;;;4974882;28;20030;-75
2020/12/19 07:50:28;;;;;;;26.27;15.50;;;2.40;99.90;;;;;;4975199;28;20737;-75
2020/12/19 07:53:07;;;;;;;21.83;14.57;;;2.40;99.90;;;;;;4975216;28;20378;-75
2020/12/19 07:55:34;;;;;;;25.67;15.38;;;2.50;99.90;;;;;;4974358;28;20023;-75
2020/12/19 07:58:02;;;;;;;22.38;14.20;;;2.60;99.90;;;;;;4975124;28;20470;-76
2020/12/19 08:00:29;;;;;;;20.63;14.43;;;2.80;99.90;;;;;;4975144;28;20058;-75
2020/12/19 08:02:55;;;;;;;20.70;13.70;;;2.90;99.90;;;;;;4974904;28;20135;-75
2020/12/19 08:05:21;;;;;;;18.23;12.73;;;3.10;99.90;;;;;;4974683;28;20137;-75
2020/12/19 08:07:54;;;;;;;17.25;11.18;;;3.30;99.90;;;;;;4973691;28;20019;-75
2020/12/19 08:10:21;;;;;;;18.80;11.98;;;3.40;99.90;;;;;;4974697;28;20037;-75
2020/12/19 08:12:47;;;;;;;20.87;13.17;;;3.60;99.90;;;;;;4975024;28;20027;-75
2020/12/19 08:15:17;;;;;;;17.40;12.02;;;3.60;99.90;;;;;;4974538;28;20054;-76
2020/12/19 08:18:01;;;;;;;20.98;13.80;;;3.70;99.90;;;;;;4974592;28;20590;-78
2020/12/19 08:20:32;;;;;;;18.38;11.82;;;3.40;99.90;;;;;;4975003;28;20027;-76
2020/12/19 08:23:08;;;;;;;18.23;12.02;;;3.50;99.90;;;;;;5007297;28;20440;-75
2020/12/19 08:25:37;;;;;;;20.77;13.10;;;3.70;99.90;;;;;;5012991;28;20053;-76
2020/12/19 08:28:03;;;;;;;17.02;11.65;;;3.70;99.90;;;;;;5014007;28;20523;-75
2020/12/19 08:30:30;;;;;;;21.20;11.95;;;3.80;99.90;;;;;;5012492;28;20034;-75
2020/12/19 08:33:06;;;;;;;19.27;11.35;;;4.00;99.90;;;;;;5012454;28;20366;-77
2020/12/19 08:35:36;;;;;;;18.27;11.32;;;4.00;99.90;;;;;;5011995;28;20858;-75
2020/12/19 08:38:23;;;;;;;17.98;10.98;;;4.20;99.90;;;;;;5010842;28;20566;-76
2020/12/19 08:40:50;;;;;;;;;;;4.20;99.90;;;;;;5004569;28;20030;-78
2020/12/19 08:43:17;;;;;;;16.55;10.25;;;4.30;99.90;;;;;;4991394;28;19913;-78
2020/12/19 08:45:49;;;;;;;15.23;10.70;;;4.40;99.90;;;;;;4988953;28;20037;-79
2020/12/19 08:48:20;;;;;;;14.45;9.65;;;4.50;99.90;;;;;;4990613;28;20050;-79
2020/12/19 08:50:47;;;;;;;14.02;9.80;;;4.50;99.90;;;;;;4990922;28;20109;-79
2020/12/19 08:53:23;;;;;;;14.70;9.18;;;4.50;99.90;;;;;;4989735;28;20034;-78
2020/12/19 08:55:50;;;;;;;14.40;9.55;;;4.60;99.90;;;;;;4990332;28;20515;-77
2020/12/19 08:58:26;;;;;;;14.80;9.68;;;4.60;99.90;;;;;;4989776;28;20053;-78
2020/12/19 09:00:57;;;;;;;13.77;10.27;;;4.60;99.90;;;;;;4989445;28;20030;-78
2020/12/19 09:03:31;;;;;;;12.60;8.82;;;4.30;99.90;;;;;;4988131;28;20027;-77
2020/12/19 09:06:05;;;;;;;16.75;9.93;;;4.50;99.90;;;;;;4987156;28;20033;-77
2020/12/19 09:08:36;;;;;;;14.50;8.77;;;4.80;99.90;;;;;;4991033;28;20393;-79
2020/12/19 09:11:03;;;;;;;12.10;8.88;;;5.10;99.90;;;;;;4990184;28;20039;-77
2020/12/19 09:13:29;;;;;;;12.30;8.65;;;5.30;99.90;;;;;;4991439;28;20026;-78
2020/12/19 09:15:57;;;;;;;11.73;8.63;;;5.60;99.90;;;;;;4990460;28;20065;-78
2020/12/19 09:18:25;;;;;;;11.55;7.70;;;6.00;99.90;;;;;;4989671;28;20022;-79
2020/12/19 09:20:56;;;;;;;12.35;8.57;;;6.40;99.90;;;;;;4989084;28;20438;-78
2020/12/19 09:23:23;;;;;;;11.40;8.35;;;7.00;99.90;;;;;;4988492;28;20173;-78
2020/12/19 09:25:49;;;;;;;16.83;8.30;;;7.50;99.90;;;;;;4987834;28;20042;-78
2020/12/19 09:28:14;;;;;;;12.63;8.65;;;8.10;99.90;;;;;;4989075;28;20026;-78
2020/12/19 09:30:41;;;;;;;15.30;8.93;;;8.50;99.90;;;;;;4988313;28;20031;-79
2020/12/19 09:33:06;;;;;;;35.72;22.08;;;8.70;99.90;;;;;;4988710;28;20129;-77
2020/12/19 09:35:32;;;;;;;13.93;9.20;;;8.90;99.90;;;;;;4987740;28;20117;-77
2020/12/19 09:37:58;;;;;;;14.63;9.15;;;9.10;99.90;;;;;;4988273;28;20162;-78
2020/12/19 09:40:25;;;;;;;14.05;8.75;;;9.60;99.90;;;;;;4989494;28;20061;-78
2020/12/19 09:42:51;;;;;;;12.80;8.90;;;10.10;99.90;;;;;;4988175;28;20018;-77
2020/12/19 09:45:16;;;;;;;11.57;8.55;;;10.30;99.90;;;;;;4987418;28;20024;-77
2020/12/19 09:47:42;;;;;;;14.02;7.95;;;10.90;99.90;;;;;;4988026;28;20534;-77
2020/12/19 09:50:09;;;;;;;10.30;7.18;;;11.60;99.90;;;;;;4988799;28;20026;-74
2020/12/19 09:52:35;;;;;;;10.32;7.55;;;12.30;99.90;;;;;;4987810;28;20041;-75
2020/12/19 09:55:02;;;;;;;10.98;7.45;;;12.80;98.20;;;;;;4987293;28;20058;-77
2020/12/19 09:57:28;;;;;;;12.70;8.00;;;12.80;97.70;;;;;;4988023;28;20022;-76
2020/12/19 09:59:53;;;;;;;9.02;6.80;;;13.00;96.80;;;;;;4987948;28;20030;-76
2020/12/19 10:02:19;;;;;;;11.00;6.47;;;13.10;96.90;;;;;;4987894;28;20085;-76
2020/12/19 10:04:45;;;;;;;9.15;6.68;;;13.60;96.00;;;;;;4987271;28;20046;-75
2020/12/19 10:07:10;;;;;;;7.43;5.13;;;14.00;94.20;;;;;;4987235;28;20710;-78
2020/12/19 10:09:36;;;;;;;8.27;6.15;;;14.20;94.10;;;;;;4988385;28;20022;-77
2020/12/19 10:12:01;;;;;;;9.95;6.63;;;14.50;93.30;;;;;;4985958;28;20050;-75
2020/12/19 10:14:27;;;;;;;10.25;6.10;;;14.00;92.80;;;;;;4968870;28;20030;-75
2020/12/19 10:16:53;;;;;;;8.82;5.55;;;14.20;92.20;;;;;;4987020;28;20089;-78
2020/12/19 10:19:18;;;;;;;8.68;5.70;;;14.60;92.20;;;;;;4989054;28;20081;-78
2020/12/19 10:21:44;;;;;;;6.85;4.70;;;15.40;91.00;;;;;;4989245;28;20030;-79
2020/12/19 10:24:09;;;;;;;6.50;4.45;;;15.60;89.90;;;;;;4987161;28;20026;-78
2020/12/19 10:26:35;;;;;;;6.65;4.50;;;15.10;89.10;;;;;;4987472;28;20054;-77
2020/12/19 10:29:00;;;;;;;5.80;4.07;;;15.80;88.70;;;;;;4987937;28;20018;-79
2020/12/19 10:31:27;;;;;;;5.82;3.78;;;16.40;84.00;;;;;;4987354;28;20061;-79
2020/12/19 10:33:53;;;;;;;4.67;3.47;;;16.60;82.00;;;;;;4987779;28;20430;-78
2020/12/19 10:36:19;;;;;;;7.57;3.80;;;16.30;80.40;;;;;;4988052;28;20296;-78
2020/12/19 10:38:45;;;;;;;6.35;3.63;;;15.80;78.20;;;;;;4987328;28;20034;-79
2020/12/19 10:41:15;;;;;;;5.70;3.70;;;15.40;79.40;;;;;;4987740;28;20057;-77
2020/12/19 10:43:41;;;;;;;5.22;3.70;;;15.20;80.80;;;;;;4987250;28;20027;-77
2020/12/19 10:46:07;;;;;;;5.45;3.72;;;15.60;80.80;;;;;;4987899;28;20049;-78
2020/12/19 10:48:33;;;;;;;5.82;3.70;;;16.00;78.30;;;;;;4988659;28;20026;-77
2020/12/19 10:50:58;;;;;;;5.50;3.60;;;16.30;76.50;;;;;;4987289;28;20148;-77
2020/12/19 10:53:25;;;;;;;4.57;3.17;;;16.50;74.00;;;;;;4987005;28;20038;-78
2020/12/19 10:55:51;;;;;;;4.60;2.95;;;16.70;73.10;;;;;;4986365;28;20022;-77
2020/12/19 10:58:17;;;;;;;6.43;3.50;;;16.70;72.30;;;;;;4986880;28;20026;-79
2020/12/19 11:00:42;;;;;;;5.10;3.38;;;16.40;72.00;;;;;;4986695;28;20023;-78
2020/12/19 11:03:08;;;;;;;6.80;3.47;;;15.90;71.80;;;;;;4986612;28;20026;-79
2020/12/19 11:05:39;;;;;;;4.80;3.20;;;15.40;74.10;;;;;;4986894;28;20152;-78
2020/12/19 11:08:05;;;;;;;6.00;3.70;;;15.00;76.60;;;;;;4987511;28;20033;-78
2020/12/19 11:10:31;;;;;;;6.25;3.83;;;14.60;76.00;;;;;;4986827;28;20026;-78
2020/12/19 11:12:57;;;;;;;4.85;3.33;;;14.30;77.50;;;;;;4986904;28;20032;-78
2020/12/19 11:15:23;;;;;;;5.28;3.50;;;13.70;79.60;;;;;;4987748;28;20031;-79
2020/12/19 11:17:49;;;;;;;7.40;4.20;;;13.80;80.30;;;;;;4986222;28;20110;-79
2020/12/19 11:20:14;;;;;;;5.38;3.80;;;14.00;80.20;;;;;;4988514;28;20026;-77
2020/12/19 11:22:40;;;;;;;5.75;3.90;;;14.20;80.70;;;;;;4986806;28;20425;-80
2020/12/19 11:25:05;;;;;;;6.68;3.70;;;14.40;79.90;;;;;;4987047;28;20069;-81
2020/12/19 11:27:31;;;;;;;8.93;3.97;;;14.60;78.80;;;;;;4987176;28;20092;-79
2020/12/19 11:29:57;;;;;;;7.70;4.05;;;14.70;78.90;;;;;;4986427;28;20234;-79
2020/12/19 11:32:23;;;;;;;6.43;4.50;;;14.10;79.60;;;;;;4986783;28;20073;-81
2020/12/19 11:34:48;;;;;;;7.55;4.82;;;13.20;85.30;;;;;;4985962;28;20022;-80
2020/12/19 11:37:15;;;;;;;6.28;4.47;;;12.40;87.30;;;;;;4986274;28;20112;-80
2020/12/19 11:39:41;;;;;;;6.43;4.38;;;12.30;90.00;;;;;;4986730;28;20029;-79
2020/12/19 11:42:07;;;;;;;6.97;4.30;;;12.00;90.90;;;;;;4985192;28;20763;-79
2020/12/19 11:44:33;;;;;;;7.68;4.00;;;12.40;91.10;;;;;;4984555;28;20023;-79
2020/12/19 11:46:58;;;;;;;6.22;4.10;;;13.30;88.10;;;;;;4987209;28;20030;-80
2020/12/19 11:49:24;;;;;;;9.25;4.28;;;13.90;83.70;;;;;;4986811;28;20038;-79
2020/12/19 11:51:49;;;;;;;6.93;4.40;;;14.20;84.70;;;;;;4987914;28;20026;-80
2020/12/19 11:54:15;;;;;;;8.38;4.82;;;14.40;82.10;;;;;;4986246;28;20026;-81
2020/12/19 11:56:41;;;;;;;11.77;5.25;;;14.30;84.20;;;;;;4987064;28;20030;-80
2020/12/19 11:59:07;;;;;;;8.20;5.00;;;14.10;83.20;;;;;;4987971;28;20031;-79
2020/12/19 12:01:32;;;;;;;7.75;4.60;;;13.80;84.80;;;;;;4986718;28;20393;-80
2020/12/19 12:03:58;;;;;;;8.13;5.15;;;13.70;87.80;;;;;;4986312;28;20037;-80
2020/12/19 12:06:28;;;;;;;9.15;5.30;;;13.60;87.10;;;;;;4985573;28;20038;-80
2020/12/19 12:08:54;;;;;;;10.65;5.75;;;13.50;87.50;;;;;;4986581;28;20544;-80
2020/12/19 12:11:25;;;;;;;10.20;5.47;;;13.90;89.70;;;;;;4986959;28;20046;-79
2020/12/19 12:13:50;;;;;;;13.30;6.15;;;14.30;86.10;;;;;;4989499;28;20034;-79
2020/12/19 12:16:16;;;;;;;10.00;5.20;;;15.30;81.40;;;;;;4990136;28;20026;-79
2020/12/19 12:18:42;;;;;;;9.43;5.88;;;16.20;77.80;;;;;;4990363;28;20153;-80
2020/12/19 12:21:08;;;;;;;12.05;6.70;;;16.60;77.10;;;;;;4990255;28;20125;-81
2020/12/19 12:23:33;;;;;;;17.45;9.48;;;16.50;75.60;;;;;;4991802;28;20181;-80
2020/12/19 12:25:59;;;;;;;6.97;4.07;;;16.50;78.10;;;;;;4990033;28;20030;-80
2020/12/19 12:28:25;;;;;;;6.70;3.58;;;17.20;74.40;;;;;;4991534;28;20033;-80
2020/12/19 12:30:50;;;;;;;5.00;3.00;;;17.30;72.30;;;;;;4991340;28;20022;-80
2020/12/19 12:33:16;;;;;;;4.95;2.72;;;17.50;70.20;;;;;;4991437;28;20064;-81
2020/12/19 12:35:42;;;;;;;4.18;2.63;;;17.20;71.00;;;;;;4988921;28;20054;-80
2020/12/19 12:38:07;;;;;;;3.72;2.42;;;17.10;70.90;;;;;;4990689;28;20072;-81
2020/12/19 12:40:33;;;;;;;3.30;2.20;;;16.70;68.90;;;;;;4989883;28;20034;-81
2020/12/19 12:42:58;;;;;;;4.43;2.60;;;16.80;69.50;;;;;;4989437;28;20014;-81
2020/12/19 12:45:24;;;;;;;5.55;2.80;;;17.20;68.30;;;;;;4990465;28;20388;-81
2020/12/19 12:47:50;;;;;;;6.85;2.70;;;17.20;69.90;;;;;;4989587;28;20533;-79